Terminal Aerodrome Forecast
Issued by NWS

Home | Current Version | Previous Version | Graphics & Text | Print | Product List | Glossary On
Versions: 1 2 3 4 5 6 7 8 9 10 11 12 13 14 15 16 17 18
000
FTUS43 KICT 290520
TAFSLN
TAF
KSLN 290520Z 2906/3006 VRB06KT P6SM VCTS BKN080CB
      TEMPO 2906/2908 -TSRA
     FM290800 18010KT P6SM BKN100
     FM291200 19011KT P6SM OVC080
     FM291500 20010KT P6SM BKN100=

USA.gov is the U.S. government's official web portal to all federal, state and local government web resources and services.